Anaco, Venezuela
Current Conditions -  °F | °C
As of 5:00 PM on Monday 20 Oct 2014 (Local Time) from SVBC Reporting Station
Scattered Clouds Scattered Clouds  
Wind Chill: 91°   Ceiling: Unl
Heat Index: 111°   Visibility: 6mi
Dew Point: 81°   Wind: 14mph
Humidity: 71%   Direction: 360°N
Pressure: 29.85"   Gusts: NA
Location:  9.44°N, 64.46°W
Report Text: SVBC 202100Z 36012KT 9999 SCT013CB/S SCT060 33/27 Q1011
Loading
Personal Weather Stations






























Interactive Weather Map
Tropical Storm Tracking
New forecast layout! Learn more

10-Day Weather Forecast

Advertisements
Track Severe Weather on mobile